Altamont, Kansas
Current Conditions -  °F | °C
As of 3:52 AM on Saturday 29 Nov 2014 (Local Time) from KPPF Reporting Station
Clear Clear  
Wind Chill: 52°   Ceiling: Unl
Heat Index: 52°   Visibility: 10mi
Dew Point: 47°   Wind: 5mph
Humidity: 83%   Direction: 170°S
Pressure: 29.74"   Gusts: NA
Location:  37.19°N, 95.3°W
Report Text: KPPF 290952Z AUTO 17004KT 10SM CLR 11/08 A2974 RMK AO2 SLP066 T01110083
Loading
Personal Weather Stations






























Interactive Weather Map New forecast layout! Learn more

10-Day Weather Forecast

Advertisements
Track Severe Weather on mobile